Time;durP1;ratioP1;P1;durP2;ratioP2;P2;SDS_P1;SDS_P2;PMS_P1;PMS_P2;Temp;Humidity;BMP_temperature;BMP_pressure;BME280_temperature;BME280_humidity;BME280_pressure;Samples;Min_cycle;Max_cycle;Signal;HPM_P1;HPM_P2
2023/01/27 00:00:10;;;;;;;7.50;2.60;;;3.60;99.90;;;;;;5045819;28;20177;-80
2023/01/27 00:02:36;;;;;;;5.70;2.10;;;3.60;99.90;;;;;;5047646;28;20212;-79
2023/01/27 00:05:01;;;;;;;10.40;2.67;;;3.60;99.90;;;;;;5047238;28;20187;-79
2023/01/27 00:07:27;;;;;;;5.27;2.30;;;3.60;99.90;;;;;;5046743;28;20207;-79
2023/01/27 00:09:52;;;;;;;7.77;2.47;;;3.60;99.90;;;;;;5045242;28;20180;-79
2023/01/27 00:15:09;;;;;;;4.93;2.47;;;3.60;99.90;;;;;;5045880;28;20195;-79
2023/01/27 00:17:35;;;;;;;13.60;2.37;;;3.70;99.90;;;;;;5043742;28;20234;-80
2023/01/27 00:20:01;;;;;;;9.50;3.17;;;3.70;99.90;;;;;;5045692;28;20173;-80
2023/01/27 00:25:11;;;;;;;8.23;2.80;;;3.70;99.90;;;;;;5045705;28;20202;-79
2023/01/27 00:27:37;;;;;;;6.77;2.40;;;3.70;99.90;;;;;;5045148;28;20184;-80
2023/01/27 00:30:06;;;;;;;6.63;2.60;;;3.70;99.90;;;;;;5045320;28;20180;-80
2023/01/27 00:35:17;;;;;;;6.20;3.57;;;3.70;99.90;;;;;;5045110;28;20585;-80
2023/01/27 00:37:45;;;;;;;10.90;3.77;;;3.70;99.90;;;;;;5045855;28;20262;-79
2023/01/27 00:40:13;;;;;;;12.40;3.53;;;3.70;99.90;;;;;;5046030;28;20196;-80
2023/01/27 00:42:38;;;;;;;10.10;3.23;;;3.70;99.90;;;;;;5045541;28;20197;-80
2023/01/27 00:47:50;;;;;;;8.77;3.43;;;3.70;99.90;;;;;;5045997;28;20167;-80
2023/01/27 00:50:15;;;;;;;12.73;3.90;;;3.70;99.90;;;;;;5045034;28;20183;-80
2023/01/27 00:52:42;;;;;;;12.20;3.90;;;3.70;99.90;;;;;;5060629;28;20696;-80
2023/01/27 00:55:09;;;;;;;10.83;4.60;;;3.80;99.90;;;;;;5045720;28;20191;-79
2023/01/27 00:57:38;;;;;;;9.77;4.20;;;3.80;99.90;;;;;;5044144;28;20271;-79
2023/01/27 01:00:05;;;;;;;8.70;4.53;;;3.70;99.90;;;;;;5045861;28;20188;-80
2023/01/27 01:02:30;;;;;;;6.27;4.00;;;3.80;99.90;;;;;;5046352;28;20216;-79
2023/01/27 01:04:56;;;;;;;10.03;4.00;;;3.80;99.90;;;;;;5046098;28;20207;-80
2023/01/27 01:07:21;;;;;;;8.43;4.10;;;3.80;99.90;;;;;;5046604;28;20544;-80
2023/01/27 01:09:47;;;;;;;13.17;4.33;;;3.70;99.90;;;;;;5045711;28;20188;-79
2023/01/27 01:12:12;;;;;;;11.33;4.10;;;3.70;99.90;;;;;;5046025;28;20753;-80
2023/01/27 01:14:38;;;;;;;9.13;3.80;;;3.70;99.90;;;;;;5047040;28;20200;-80
2023/01/27 01:17:03;;;;;;;10.00;5.13;;;3.70;99.90;;;;;;5044225;28;20283;-79
2023/01/27 01:19:29;;;;;;;9.03;5.23;;;3.80;99.90;;;;;;5059450;28;20222;-79
2023/01/27 01:21:55;;;;;;;8.77;5.40;;;3.80;99.90;;;;;;5043164;28;20226;-79
2023/01/27 01:24:20;;;;;;;10.07;4.80;;;3.80;99.90;;;;;;5042788;28;20640;-79
2023/01/27 01:26:46;;;;;;;9.83;4.97;;;3.80;99.90;;;;;;5044888;28;20177;-79
2023/01/27 01:29:12;;;;;;;8.80;5.07;;;3.80;99.90;;;;;;5042833;28;20187;-80
2023/01/27 01:31:37;;;;;;;10.93;5.00;;;3.80;99.90;;;;;;5044116;28;20208;-80
2023/01/27 01:34:03;;;;;;;11.63;5.93;;;3.80;99.90;;;;;;5043184;28;20200;-80
2023/01/27 01:36:28;;;;;;;12.43;4.80;;;3.80;99.90;;;;;;5044417;28;20179;-80
2023/01/27 01:38:55;;;;;;;11.47;6.13;;;3.80;99.90;;;;;;5043627;28;20172;-79
2023/01/27 01:41:21;;;;;;;8.87;5.13;;;3.80;99.90;;;;;;5044624;28;20208;-80
2023/01/27 01:43:48;;;;;;;8.73;5.30;;;3.80;99.90;;;;;;5045646;28;20180;-80
2023/01/27 01:46:14;;;;;;;10.33;5.87;;;3.80;99.90;;;;;;5042725;28;20666;-80
2023/01/27 01:48:53;;;;;;;10.07;5.87;;;3.80;99.90;;;;;;5044515;28;20184;-80
2023/01/27 01:51:39;;;;;;;10.47;5.70;;;3.80;99.90;;;;;;5043170;28;20196;-79
2023/01/27 01:54:24;;;;;;;14.57;6.37;;;3.80;99.90;;;;;;5044284;28;20188;-80
2023/01/27 01:56:55;;;;;;;12.87;6.50;;;3.80;99.90;;;;;;5044581;28;20153;-80
2023/01/27 01:59:32;;;;;;;13.57;6.37;;;3.80;99.90;;;;;;5049469;28;20156;-80
2023/01/27 02:02:02;;;;;;;12.00;6.60;;;3.80;99.90;;;;;;5048449;28;20627;-79
2023/01/27 02:04:52;;;;;;;13.90;7.43;;;3.80;99.90;;;;;;5047561;28;20528;-80
2023/01/27 02:07:27;;;;;;;16.40;7.90;;;3.80;99.90;;;;;;5047955;28;20216;-80
2023/01/27 02:09:55;;;;;;;11.50;7.17;;;3.80;99.90;;;;;;5049195;28;20153;-79
2023/01/27 02:12:20;;;;;;;15.83;8.77;;;3.80;99.90;;;;;;5049369;28;20222;-79
2023/01/27 02:14:46;;;;;;;15.87;7.53;;;3.80;99.90;;;;;;5048440;28;20671;-79
2023/01/27 02:17:12;;;;;;;13.27;6.97;;;3.80;99.90;;;;;;5049818;28;20227;-80
2023/01/27 02:20:05;;;;;;;13.03;7.77;;;3.90;99.90;;;;;;5050857;28;20176;-80
2023/01/27 02:22:52;;;;;;;13.37;7.53;;;3.90;99.90;;;;;;5051378;28;20206;-79
2023/01/27 02:25:35;;;;;;;13.23;6.97;;;3.90;99.90;;;;;;5048143;28;20183;-80
2023/01/27 02:28:07;;;;;;;11.43;7.20;;;3.80;99.90;;;;;;5047611;28;20172;-80
2023/01/27 02:30:32;;;;;;;10.77;6.43;;;3.80;99.90;;;;;;5046923;28;20237;-80
2023/01/27 02:32:58;;;;;;;11.27;7.20;;;3.80;99.90;;;;;;5047645;28;20285;-80
2023/01/27 02:35:38;;;;;;;14.90;7.60;;;3.80;99.90;;;;;;5046674;28;20264;-79
2023/01/27 02:38:06;;;;;;;14.13;7.70;;;3.90;99.90;;;;;;5048682;28;20153;-79
2023/01/27 02:40:32;;;;;;;17.13;8.60;;;3.80;99.90;;;;;;5047317;28;20228;-79
2023/01/27 02:42:59;;;;;;;15.97;8.63;;;3.80;99.90;;;;;;5047765;28;20172;-80
2023/01/27 02:45:25;;;;;;;16.07;9.57;;;3.80;99.90;;;;;;5046872;28;20196;-80
2023/01/27 02:47:50;;;;;;;17.33;8.83;;;3.80;99.90;;;;;;5048170;28;20180;-80
2023/01/27 02:50:16;;;;;;;15.83;9.10;;;3.80;99.90;;;;;;5047509;28;20172;-80
2023/01/27 02:52:42;;;;;;;14.93;9.13;;;3.70;99.90;;;;;;5046302;28;20193;-80
2023/01/27 02:55:08;;;;;;;14.80;8.57;;;3.70;99.90;;;;;;5046249;28;20226;-80
2023/01/27 02:57:34;;;;;;;16.10;8.33;;;3.70;99.90;;;;;;5048192;28;20199;-80
2023/01/27 02:59:59;;;;;;;14.97;8.23;;;3.70;99.90;;;;;;5063677;28;20175;-79
2023/01/27 03:02:29;;;;;;;16.73;7.97;;;3.60;99.90;;;;;;5068347;28;20196;-79
2023/01/27 03:04:56;;;;;;;13.80;7.23;;;3.60;99.90;;;;;;5067480;28;20176;-80
2023/01/27 03:07:22;;;;;;;14.93;7.67;;;3.60;99.90;;;;;;5067643;28;20190;-80
2023/01/27 03:09:47;;;;;;;14.30;6.97;;;3.60;99.90;;;;;;5065461;28;20180;-79
2023/01/27 03:12:19;;;;;;;15.47;7.63;;;3.60;99.90;;;;;;5067029;28;20191;-80
2023/01/27 03:20:14;;;;;;;11.43;5.50;;;3.50;99.90;;;;;;5068265;28;20645;-79
2023/01/27 03:22:39;;;;;;;10.07;6.03;;;3.50;99.90;;;;;;5066866;28;20250;-79
2023/01/27 03:25:05;;;;;;;8.80;5.30;;;3.50;99.90;;;;;;5067311;28;20183;-80
2023/01/27 03:27:30;;;;;;;9.73;6.00;;;3.50;99.90;;;;;;5068996;28;20183;-80
2023/01/27 03:29:56;;;;;;;8.57;5.40;;;3.40;99.90;;;;;;5069424;28;20518;-80
2023/01/27 03:32:26;;;;;;;9.33;6.40;;;3.50;99.90;;;;;;5068339;28;20194;-79
2023/01/27 03:34:56;;;;;;;10.33;5.50;;;3.40;99.90;;;;;;5067251;28;20298;-79
2023/01/27 03:48:27;;;;;;;11.13;5.40;;;3.40;99.90;;;;;;5066123;28;20175;-80
2023/01/27 03:50:56;;;;;;;9.83;6.00;;;3.50;99.90;;;;;;5067842;28;20198;-80
2023/01/27 03:53:22;;;;;;;8.27;5.23;;;3.50;99.90;;;;;;5065253;28;20195;-80
2023/01/27 03:55:47;;;;;;;10.97;5.93;;;3.40;99.90;;;;;;5066373;28;20574;-79
2023/01/27 03:58:27;;;;;;;7.73;5.47;;;3.40;99.90;;;;;;5064984;28;20195;-80
2023/01/27 04:00:55;;;;;;;9.70;6.67;;;3.40;99.90;;;;;;5066703;28;20701;-80
2023/01/27 04:08:55;;;;;;;9.40;5.83;;;3.50;99.90;;;;;;5067153;28;20235;-79
2023/01/27 04:11:53;;;;;;;11.60;7.07;;;3.40;99.90;;;;;;5064804;28;20199;-80
2023/01/27 04:14:11;;;;;;;12.83;6.97;;;3.50;99.90;;;;;;5066645;28;20575;-79
2023/01/27 04:16:37;;;;;;;12.17;7.17;;;3.40;99.90;;;;;;5065382;28;20258;-79
2023/01/27 04:19:05;;;;;;;10.77;7.17;;;3.40;99.90;;;;;;5065669;28;20179;-80
2023/01/27 04:21:31;;;;;;;14.43;8.47;;;3.50;99.90;;;;;;5063992;28;20694;-79
2023/01/27 04:23:56;;;;;;;12.43;6.77;;;3.40;99.90;;;;;;5064661;28;20191;-79
2023/01/27 04:26:22;;;;;;;11.33;6.93;;;3.40;99.90;;;;;;5066543;28;20175;-79
2023/01/27 04:28:48;;;;;;;11.73;7.13;;;3.40;99.90;;;;;;5066567;28;20183;-79
2023/01/27 04:31:14;;;;;;;13.20;6.80;;;3.40;99.90;;;;;;5066277;28;20224;-79
2023/01/27 04:33:44;;;;;;;12.37;7.63;;;3.40;99.90;;;;;;5065180;28;20244;-80
2023/01/27 04:36:14;;;;;;;11.50;7.80;;;3.40;99.90;;;;;;5067979;28;20222;-80
2023/01/27 04:38:39;;;;;;;11.47;7.50;;;3.40;99.90;;;;;;5068168;28;20236;-80
2023/01/27 04:41:05;;;;;;;11.63;7.63;;;3.40;99.90;;;;;;5066225;28;20191;-79
2023/01/27 04:43:30;;;;;;;11.57;7.63;;;3.30;99.90;;;;;;5063249;28;20179;-79
2023/01/27 04:45:56;;;;;;;12.53;8.10;;;3.40;99.90;;;;;;5064769;28;20168;-79
2023/01/27 04:48:21;;;;;;;12.70;8.17;;;3.30;99.90;;;;;;5064901;28;20597;-79
2023/01/27 04:50:47;;;;;;;12.77;7.67;;;3.30;99.90;;;;;;5064354;28;20218;-80
2023/01/27 04:53:12;;;;;;;13.10;8.80;;;3.30;99.90;;;;;;5064853;28;20229;-79
2023/01/27 04:55:38;;;;;;;17.07;8.80;;;3.30;99.90;;;;;;5064706;28;20254;-79
2023/01/27 04:58:04;;;;;;;13.63;8.93;;;3.30;99.90;;;;;;5062663;28;20179;-79
2023/01/27 05:00:30;;;;;;;13.90;8.90;;;3.30;99.90;;;;;;5064875;28;20171;-79
2023/01/27 05:02:56;;;;;;;12.63;8.73;;;3.40;99.90;;;;;;5064344;28;20187;-79
2023/01/27 05:05:21;;;;;;;15.73;8.60;;;3.30;99.90;;;;;;5064215;28;20183;-79
2023/01/27 05:07:47;;;;;;;13.90;8.73;;;3.30;99.90;;;;;;5064296;28;20238;-79
2023/01/27 05:10:12;;;;;;;15.70;9.40;;;3.30;99.90;;;;;;5063512;28;20198;-79
2023/01/27 05:12:38;;;;;;;14.67;9.47;;;3.30;99.90;;;;;;5062567;28;20709;-78
2023/01/27 05:15:04;;;;;;;17.33;9.17;;;3.30;99.90;;;;;;5063046;28;20202;-78
2023/01/27 05:17:31;;;;;;;13.67;8.90;;;3.30;99.90;;;;;;5061781;28;20184;-78
2023/01/27 05:19:56;;;;;;;15.80;9.83;;;3.30;99.90;;;;;;5061922;28;20183;-79
2023/01/27 05:22:22;;;;;;;13.83;8.77;;;3.30;99.90;;;;;;5062379;28;20253;-79
2023/01/27 05:24:48;;;;;;;13.57;8.33;;;3.30;99.90;;;;;;5062350;28;20184;-79
2023/01/27 05:27:13;;;;;;;18.40;9.17;;;3.30;99.90;;;;;;5062985;28;20179;-79
2023/01/27 05:29:39;;;;;;;16.23;9.43;;;3.30;99.90;;;;;;5064422;28;20259;-79
2023/01/27 05:32:05;;;;;;;13.93;8.53;;;3.40;99.90;;;;;;5063120;28;20205;-78
2023/01/27 05:34:30;;;;;;;16.93;8.93;;;3.30;99.90;;;;;;5061745;28;20206;-78
2023/01/27 05:36:56;;;;;;;16.07;8.73;;;3.40;99.90;;;;;;5063159;28;20172;-79
2023/01/27 05:39:21;;;;;;;16.20;8.80;;;3.40;99.90;;;;;;5062088;28;20179;-79
2023/01/27 05:41:47;;;;;;;15.50;9.50;;;3.30;99.90;;;;;;5062116;28;20200;-79
2023/01/27 05:44:12;;;;;;;11.77;8.10;;;3.40;99.90;;;;;;5061992;28;20199;-78
2023/01/27 05:46:40;;;;;;;14.13;8.63;;;3.40;99.90;;;;;;5061064;28;20180;-79
2023/01/27 05:49:06;;;;;;;15.63;8.63;;;3.40;99.90;;;;;;5061241;28;20180;-78
2023/01/27 05:51:36;;;;;;;18.37;9.50;;;3.40;99.90;;;;;;5056345;28;20195;-77
2023/01/27 05:54:02;;;;;;;16.40;9.30;;;3.40;99.90;;;;;;5054164;28;20195;-77
2023/01/27 05:56:28;;;;;;;13.87;8.47;;;3.40;99.90;;;;;;5052184;28;20171;-77
2023/01/27 05:58:55;;;;;;;16.97;9.47;;;3.50;99.90;;;;;;5052118;28;20178;-77
2023/01/27 06:01:26;;;;;;;14.80;9.83;;;3.40;99.90;;;;;;5054305;28;20188;-77
2023/01/27 06:03:52;;;;;;;11.70;8.27;;;3.40;99.90;;;;;;5054287;28;20175;-78
2023/01/27 06:06:19;;;;;;;12.13;8.73;;;3.50;99.90;;;;;;5056782;28;20263;-79
2023/01/27 06:08:46;;;;;;;12.23;8.40;;;3.50;99.90;;;;;;5058707;28;20643;-78
2023/01/27 06:11:12;;;;;;;13.90;8.80;;;3.50;99.90;;;;;;5058215;28;20223;-78
2023/01/27 06:13:38;;;;;;;15.03;9.33;;;3.50;99.90;;;;;;5058079;28;20682;-78
2023/01/27 06:16:06;;;;;;;12.17;9.03;;;3.50;99.90;;;;;;5057921;28;20568;-77
2023/01/27 06:18:32;;;;;;;14.53;8.47;;;3.50;99.90;;;;;;5056452;28;20611;-78
2023/01/27 06:20:59;;;;;;;14.90;8.17;;;3.50;99.90;;;;;;5058731;28;20211;-78
2023/01/27 06:23:26;;;;;;;16.73;8.50;;;3.50;99.90;;;;;;5062240;28;20262;-76
2023/01/27 06:25:52;;;;;;;12.90;8.07;;;3.60;99.90;;;;;;5059779;28;20172;-78
2023/01/27 06:28:17;;;;;;;13.20;7.93;;;3.50;99.90;;;;;;5053425;28;20290;-79
2023/01/27 06:30:43;;;;;;;12.80;8.20;;;3.50;99.90;;;;;;5052329;28;20230;-76
2023/01/27 06:33:09;;;;;;;12.47;8.13;;;3.50;99.90;;;;;;5051218;28;20172;-77
2023/01/27 06:35:36;;;;;;;14.27;8.83;;;3.50;99.90;;;;;;5052635;28;20519;-76
2023/01/27 06:38:05;;;;;;;14.13;8.40;;;3.50;99.90;;;;;;5052811;28;20592;-77
2023/01/27 06:40:31;;;;;;;13.13;7.87;;;3.50;99.90;;;;;;5052434;28;20223;-76
2023/01/27 06:42:57;;;;;;;12.03;7.23;;;3.50;99.90;;;;;;5052838;28;20245;-77
2023/01/27 06:45:23;;;;;;;13.57;7.73;;;3.50;99.90;;;;;;5056275;28;20171;-77
2023/01/27 06:47:56;;;;;;;11.30;7.57;;;3.50;99.90;;;;;;5056101;28;20183;-76
2023/01/27 06:50:22;;;;;;;14.67;7.77;;;3.60;99.90;;;;;;5054831;28;20647;-76
2023/01/27 06:52:48;;;;;;;14.87;8.03;;;3.50;99.90;;;;;;5055902;28;20195;-76
2023/01/27 06:55:14;;;;;;;14.43;8.30;;;3.60;99.90;;;;;;5054665;28;20195;-76
2023/01/27 06:57:40;;;;;;;11.43;7.00;;;3.60;99.90;;;;;;5054642;28;20195;-77
2023/01/27 07:00:07;;;;;;;11.37;7.43;;;3.50;99.90;;;;;;5055881;28;20164;-76
2023/01/27 07:02:33;;;;;;;11.57;7.27;;;3.60;99.90;;;;;;5054450;28;20699;-76
2023/01/27 07:04:58;;;;;;;11.20;7.53;;;3.60;99.90;;;;;;5055746;28;20183;-76
2023/01/27 07:07:24;;;;;;;14.13;7.03;;;3.60;99.90;;;;;;5055722;28;20172;-76
2023/01/27 07:09:49;;;;;;;10.80;7.63;;;3.60;99.90;;;;;;5055732;28;20172;-76
2023/01/27 07:12:15;;;;;;;10.70;7.20;;;3.50;99.90;;;;;;5054202;28;20284;-76
2023/01/27 07:14:40;;;;;;;8.40;5.70;;;3.50;99.90;;;;;;5055399;28;20209;-76
2023/01/27 07:17:06;;;;;;;9.20;6.20;;;3.50;99.90;;;;;;5055568;28;20581;-77
2023/01/27 07:19:32;;;;;;;9.80;6.17;;;3.50;99.90;;;;;;5055479;28;20669;-76
2023/01/27 07:21:58;;;;;;;7.30;5.73;;;3.60;99.90;;;;;;5055169;28;20211;-76
2023/01/27 07:24:23;;;;;;;7.57;5.97;;;3.50;99.90;;;;;;5055208;28;20186;-76
2023/01/27 07:26:49;;;;;;;10.07;6.30;;;3.60;99.90;;;;;;5055246;28;20259;-76
2023/01/27 07:29:14;;;;;;;9.03;5.93;;;3.60;99.90;;;;;;5055231;28;20205;-76
2023/01/27 07:31:40;;;;;;;8.50;5.87;;;3.60;99.90;;;;;;5055082;28;20191;-76
2023/01/27 07:34:05;;;;;;;8.37;6.03;;;3.60;99.90;;;;;;5055075;28;20195;-75
2023/01/27 07:36:31;;;;;;;7.93;5.90;;;3.60;99.90;;;;;;5053776;28;20542;-76
2023/01/27 07:38:56;;;;;;;8.23;5.57;;;3.60;99.90;;;;;;5055056;28;20190;-75
2023/01/27 07:41:23;;;;;;;7.60;6.30;;;3.60;99.90;;;;;;5053653;28;20235;-76
2023/01/27 07:43:49;;;;;;;10.17;6.00;;;3.70;99.90;;;;;;5053701;28;20183;-76
2023/01/27 07:46:14;;;;;;;7.83;5.53;;;3.70;99.90;;;;;;5054881;28;20176;-77
2023/01/27 07:48:40;;;;;;;7.67;5.67;;;3.70;99.90;;;;;;5053599;28;20237;-76
2023/01/27 07:51:10;;;;;;;9.90;6.10;;;3.70;99.90;;;;;;5054800;28;20198;-76
2023/01/27 07:53:35;;;;;;;8.60;6.13;;;3.70;99.90;;;;;;5053503;28;20221;-76
2023/01/27 07:56:01;;;;;;;9.30;6.83;;;3.70;99.90;;;;;;5054176;28;20702;-76
2023/01/27 07:58:26;;;;;;;7.93;5.73;;;3.70;99.90;;;;;;5053406;28;20178;-76
2023/01/27 08:00:52;;;;;;;7.70;5.87;;;3.70;99.90;;;;;;5053313;28;20647;-76
2023/01/27 08:03:22;;;;;;;9.60;6.70;;;3.80;99.90;;;;;;5054584;28;20551;-76
2023/01/27 08:05:48;;;;;;;7.93;5.90;;;3.80;99.90;;;;;;5055131;28;20160;-76
2023/01/27 08:08:13;;;;;;;8.03;6.17;;;3.80;99.90;;;;;;5053287;28;20221;-77
2023/01/27 08:10:39;;;;;;;8.30;6.60;;;3.80;99.90;;;;;;5054323;28;20547;-77
2023/01/27 08:13:04;;;;;;;8.40;6.40;;;3.90;99.90;;;;;;5054325;28;20184;-76
2023/01/27 08:15:30;;;;;;;7.90;6.63;;;3.90;99.90;;;;;;5054825;28;20214;-76
2023/01/27 08:17:57;;;;;;;7.80;6.10;;;3.90;99.90;;;;;;5054281;28;20186;-76
2023/01/27 08:20:24;;;;;;;8.00;6.27;;;3.90;99.90;;;;;;5054261;28;20194;-76
2023/01/27 08:22:50;;;;;;;8.33;6.00;;;3.90;99.90;;;;;;5054179;28;20203;-76
2023/01/27 08:25:16;;;;;;;8.40;6.23;;;4.00;99.90;;;;;;5052843;28;20176;-76
2023/01/27 08:27:41;;;;;;;8.10;7.10;;;4.00;99.90;;;;;;5054422;28;20262;-76
2023/01/27 08:30:07;;;;;;;11.17;6.30;;;4.00;99.90;;;;;;5054375;28;20176;-76
2023/01/27 08:32:34;;;;;;;9.80;7.20;;;4.00;99.90;;;;;;5053973;28;20187;-77
2023/01/27 08:34:59;;;;;;;9.90;7.00;;;4.00;99.90;;;;;;5052665;28;20578;-76
2023/01/27 08:37:25;;;;;;;8.23;6.53;;;4.00;99.90;;;;;;5052678;28;20171;-76
2023/01/27 08:39:51;;;;;;;7.33;5.73;;;4.00;99.90;;;;;;5053948;28;20172;-76
2023/01/27 08:42:16;;;;;;;8.00;6.33;;;4.00;99.90;;;;;;5053775;28;20183;-76
2023/01/27 08:44:42;;;;;;;8.77;6.73;;;4.10;99.90;;;;;;5054123;28;20168;-76
2023/01/27 08:47:07;;;;;;;8.53;6.70;;;4.10;99.90;;;;;;5053774;28;20523;-76
2023/01/27 08:49:33;;;;;;;7.93;6.30;;;4.10;99.90;;;;;;5052383;28;20176;-76
2023/01/27 08:51:59;;;;;;;8.37;6.30;;;4.20;99.90;;;;;;5053666;28;20194;-76
2023/01/27 08:54:24;;;;;;;10.37;6.53;;;4.20;99.90;;;;;;5053618;28;20203;-76
2023/01/27 08:56:50;;;;;;;8.47;6.33;;;4.20;99.90;;;;;;5053596;28;20178;-76
2023/01/27 08:59:16;;;;;;;7.93;6.10;;;4.20;99.90;;;;;;5053556;28;20648;-76
2023/01/27 09:01:41;;;;;;;8.73;6.67;;;4.30;99.90;;;;;;5052469;28;20687;-76
2023/01/27 09:04:07;;;;;;;9.07;6.67;;;4.30;99.90;;;;;;5052807;28;20213;-76
2023/01/27 09:06:32;;;;;;;7.83;6.23;;;4.40;99.90;;;;;;5053437;28;20587;-76
2023/01/27 09:09:07;;;;;;;7.13;5.90;;;4.40;99.90;;;;;;5053340;28;20179;-76
2023/01/27 09:11:33;;;;;;;9.53;5.83;;;4.50;99.90;;;;;;5053634;28;20673;-76
2023/01/27 09:13:59;;;;;;;7.53;6.00;;;4.50;99.90;;;;;;5053543;28;20324;-76
2023/01/27 09:16:25;;;;;;;7.33;5.70;;;4.60;99.90;;;;;;5053254;28;20217;-76
2023/01/27 09:18:51;;;;;;;8.17;5.03;;;4.60;99.90;;;;;;5053215;28;20172;-76
2023/01/27 09:21:16;;;;;;;7.57;6.07;;;4.60;99.90;;;;;;5053002;28;20325;-76
2023/01/27 09:23:42;;;;;;;8.50;6.17;;;4.60;99.90;;;;;;5051884;28;20179;-76
2023/01/27 09:26:07;;;;;;;9.27;6.10;;;4.70;99.90;;;;;;5053097;28;20176;-76
2023/01/27 09:28:33;;;;;;;7.23;5.30;;;4.70;99.90;;;;;;5051869;28;20202;-75
2023/01/27 09:30:59;;;;;;;7.30;5.40;;;4.70;99.90;;;;;;5053224;28;20816;-76
2023/01/27 09:33:25;;;;;;;7.73;5.43;;;4.70;99.90;;;;;;5053232;28;20175;-76
2023/01/27 09:36:04;;;;;;;8.77;6.10;;;4.70;99.90;;;;;;5051729;28;20171;-76
2023/01/27 09:38:32;;;;;;;6.67;5.33;;;4.70;99.90;;;;;;5051743;28;20163;-76
2023/01/27 09:41:27;;;;;;;8.70;5.97;;;4.80;99.90;;;;;;5051651;28;20577;-76
2023/01/27 09:44:20;;;;;;;9.90;5.67;;;4.80;99.90;;;;;;5051683;28;20543;-77
2023/01/27 09:47:05;;;;;;;7.43;6.13;;;4.80;99.90;;;;;;5053262;28;20634;-76
2023/01/27 09:49:48;;;;;;;7.67;6.27;;;4.80;99.90;;;;;;5052875;28;20646;-76
2023/01/27 09:52:45;;;;;;;7.63;6.07;;;4.80;99.90;;;;;;5051525;28;20230;-76
2023/01/27 09:55:17;;;;;;;6.73;5.37;;;4.80;99.90;;;;;;5052736;28;20241;-77
2023/01/27 09:58:22;;;;;;;7.90;6.17;;;4.90;99.90;;;;;;5052821;28;20206;-77
2023/01/27 10:01:05;;;;;;;7.60;6.00;;;4.90;99.90;;;;;;5052696;28;20160;-77
2023/01/27 10:04:09;;;;;;;9.57;6.80;;;4.90;99.90;;;;;;5052888;28;20163;-76
2023/01/27 10:06:56;;;;;;;7.90;6.30;;;4.90;99.90;;;;;;5052742;28;20160;-76
2023/01/27 10:09:34;;;;;;;7.00;6.27;;;5.00;99.90;;;;;;5052826;28;20156;-76
2023/01/27 10:12:09;;;;;;;7.43;6.10;;;5.10;99.90;;;;;;5052677;28;20191;-76
2023/01/27 10:14:48;;;;;;;7.37;6.00;;;5.10;99.90;;;;;;5051328;28;20294;-76
2023/01/27 10:17:44;;;;;;;8.40;6.13;;;5.10;99.90;;;;;;5052822;28;20167;-76
2023/01/27 10:20:51;;;;;;;7.60;6.57;;;5.20;99.90;;;;;;5055193;28;20174;-76
2023/01/27 10:23:28;;;;;;;7.57;6.40;;;5.20;99.90;;;;;;5056795;28;20166;-76
2023/01/27 10:26:21;;;;;;;6.93;6.00;;;5.30;99.90;;;;;;5056918;28;20186;-76
2023/01/27 10:28:50;;;;;;;6.70;5.50;;;5.30;99.90;;;;;;5037883;28;20183;-77
2023/01/27 10:31:30;;;;;;;7.53;6.23;;;5.30;99.90;;;;;;5056630;28;20195;-77
2023/01/27 10:34:02;;;;;;;9.47;6.07;;;5.40;99.90;;;;;;5055061;28;20261;-76
2023/01/27 10:36:37;;;;;;;7.37;5.77;;;5.40;99.90;;;;;;5056320;28;20187;-76
2023/01/27 10:39:15;;;;;;;6.60;5.40;;;5.50;99.90;;;;;;5056330;28;20169;-76
2023/01/27 10:41:57;;;;;;;8.40;6.00;;;5.40;99.90;;;;;;5056477;28;20298;-76
2023/01/27 10:44:45;;;;;;;8.43;6.57;;;5.50;99.90;;;;;;5056410;28;20700;-77
2023/01/27 10:47:49;;;;;;;8.53;6.33;;;5.60;99.90;;;;;;5056019;28;20184;-76
2023/01/27 10:50:26;;;;;;;12.37;6.40;;;5.60;99.90;;;;;;5017404;28;20659;-76
2023/01/27 10:53:17;;;;;;;11.30;7.10;;;5.70;99.90;;;;;;5017421;28;20211;-76
2023/01/27 10:55:56;;;;;;;9.43;6.83;;;5.70;99.90;;;;;;5042984;28;20191;-77
2023/01/27 10:59:18;;;;;;;9.63;7.33;;;5.70;99.90;;;;;;5054710;28;20178;-77
2023/01/27 11:01:50;;;;;;;8.40;6.47;;;5.80;99.90;;;;;;5033945;28;20200;-77
2023/01/27 11:04:50;;;;;;;9.20;6.53;;;5.70;99.90;;;;;;5033855;28;20236;-77
2023/01/27 11:07:18;;;;;;;8.87;6.20;;;5.80;99.90;;;;;;5038868;28;20185;-76
2023/01/27 11:09:56;;;;;;;9.23;6.90;;;5.80;99.90;;;;;;5055758;28;20172;-76
2023/01/27 11:12:33;;;;;;;7.73;6.37;;;5.90;99.90;;;;;;5056439;28;20193;-77
2023/01/27 11:15:01;;;;;;;8.83;6.73;;;5.90;99.90;;;;;;5055817;28;20274;-77
2023/01/27 11:17:48;;;;;;;11.27;7.60;;;5.80;99.90;;;;;;5055865;28;20164;-77
2023/01/27 11:20:17;;;;;;;9.67;6.23;;;5.80;99.90;;;;;;5054297;28;20164;-77
2023/01/27 11:22:50;;;;;;;7.63;6.53;;;5.80;99.90;;;;;;5054410;28;20202;-77
2023/01/27 11:25:33;;;;;;;9.37;6.53;;;5.80;99.90;;;;;;5055608;28;20169;-76
2023/01/27 11:28:13;;;;;;;7.83;6.10;;;5.70;99.90;;;;;;5055583;28;20170;-76
2023/01/27 11:30:57;;;;;;;8.03;6.43;;;5.80;99.90;;;;;;5053981;28;20187;-76
2023/01/27 11:33:31;;;;;;;8.37;6.50;;;5.80;99.90;;;;;;5053946;28;20168;-77
2023/01/27 11:35:57;;;;;;;7.60;6.47;;;5.80;99.90;;;;;;5055263;28;20183;-76
2023/01/27 11:38:23;;;;;;;8.97;6.80;;;5.80;99.90;;;;;;5055058;28;20214;-76
2023/01/27 11:40:51;;;;;;;9.03;7.00;;;5.70;99.90;;;;;;5053752;28;20215;-77
2023/01/27 11:43:23;;;;;;;9.70;6.73;;;5.70;99.90;;;;;;5055059;28;20171;-77
2023/01/27 11:45:54;;;;;;;9.30;6.70;;;5.70;99.90;;;;;;5053849;28;20548;-77
2023/01/27 11:48:20;;;;;;;8.93;6.53;;;5.70;99.90;;;;;;5053728;28;20255;-76
2023/01/27 11:50:46;;;;;;;8.27;6.83;;;5.60;99.90;;;;;;5055085;28;20238;-76
2023/01/27 11:53:24;;;;;;;9.37;6.93;;;5.60;99.90;;;;;;5054710;28;20543;-76
2023/01/27 11:55:55;;;;;;;8.30;6.10;;;5.70;99.90;;;;;;5054936;28;20167;-77
2023/01/27 11:58:32;;;;;;;9.20;7.23;;;5.70;99.90;;;;;;5055155;28;20159;-77
2023/01/27 12:01:02;;;;;;;8.73;6.97;;;5.60;99.90;;;;;;5054952;28;20195;-77
2023/01/27 12:03:51;;;;;;;7.53;6.10;;;5.60;99.90;;;;;;5054514;28;20635;-77
2023/01/27 12:06:42;;;;;;;7.83;6.30;;;5.60;99.90;;;;;;5054994;28;20177;-76
2023/01/27 12:09:35;;;;;;;6.10;5.50;;;5.60;99.90;;;;;;5054613;28;20186;-76
2023/01/27 12:12:12;;;;;;;8.33;5.60;;;5.60;99.90;;;;;;5053292;28;20200;-76
2023/01/27 12:14:39;;;;;;;6.60;5.53;;;5.60;99.90;;;;;;5053133;28;20207;-76
2023/01/27 12:17:06;;;;;;;6.30;5.20;;;5.60;99.90;;;;;;5053191;28;20221;-76
2023/01/27 12:19:40;;;;;;;7.20;5.40;;;5.70;99.90;;;;;;5053105;28;20176;-76
2023/01/27 12:22:26;;;;;;;6.10;4.57;;;5.70;99.90;;;;;;5054212;28;20231;-77
2023/01/27 12:24:56;;;;;;;5.43;4.50;;;5.60;99.90;;;;;;5053032;28;20263;-77
2023/01/27 12:27:24;;;;;;;6.70;4.30;;;5.70;99.90;;;;;;5054312;28;20186;-77
2023/01/27 12:29:57;;;;;;;5.17;3.73;;;5.60;99.90;;;;;;5054459;28;20168;-77
2023/01/27 12:32:44;;;;;;;4.70;3.67;;;5.60;99.90;;;;;;5052927;28;20290;-77
2023/01/27 12:35:31;;;;;;;4.83;4.00;;;5.60;99.90;;;;;;5054169;28;20206;-76
2023/01/27 12:38:02;;;;;;;4.10;3.43;;;5.50;99.90;;;;;;5054081;28;20242;-77
2023/01/27 12:40:28;;;;;;;4.63;3.43;;;5.50;99.90;;;;;;5053986;28;20214;-77
2023/01/27 12:43:12;;;;;;;5.53;3.80;;;5.50;99.90;;;;;;5053804;28;20195;-77
2023/01/27 12:45:39;;;;;;;3.93;3.53;;;5.50;99.90;;;;;;5054008;28;20175;-77
2023/01/27 12:48:08;;;;;;;4.37;3.47;;;5.50;99.90;;;;;;5054208;28;20218;-77
2023/01/27 12:50:51;;;;;;;3.40;3.10;;;5.50;99.90;;;;;;5053683;28;20164;-78
2023/01/27 12:53:19;;;;;;;4.73;3.37;;;5.50;99.90;;;;;;5052417;28;20288;-76
2023/01/27 12:56:22;;;;;;;3.63;3.00;;;5.50;99.90;;;;;;5052487;28;20171;-75
2023/01/27 12:58:53;;;;;;;3.30;2.73;;;5.50;99.90;;;;;;5031622;28;20183;-77
2023/01/27 13:01:26;;;;;;;3.03;2.63;;;5.50;99.90;;;;;;5049957;28;20207;-76
2023/01/27 13:03:56;;;;;;;2.57;2.37;;;5.60;99.90;;;;;;5052342;28;20201;-77
2023/01/27 13:06:30;;;;;;;3.17;2.77;;;5.60;99.90;;;;;;5052216;28;20179;-77
2023/01/27 13:08:58;;;;;;;4.37;2.53;;;5.60;99.90;;;;;;5053487;28;20531;-77
2023/01/27 13:11:32;;;;;;;3.03;2.53;;;5.70;99.90;;;;;;5053725;28;20245;-76
2023/01/27 13:13:58;;;;;;;2.57;2.33;;;5.70;99.90;;;;;;5052122;28;20268;-77
2023/01/27 13:16:29;;;;;;;3.23;2.53;;;5.70;99.90;;;;;;5053282;28;20659;-76
2023/01/27 13:18:57;;;;;;;2.87;2.40;;;5.70;99.90;;;;;;5052012;28;20577;-75
2023/01/27 13:21:36;;;;;;;2.70;2.40;;;5.70;99.90;;;;;;5053121;28;20667;-77
2023/01/27 13:24:14;;;;;;;2.77;2.40;;;5.70;99.90;;;;;;5053463;28;20214;-76
2023/01/27 13:26:40;;;;;;;2.30;2.10;;;5.70;99.90;;;;;;5053567;28;20569;-77
2023/01/27 13:29:16;;;;;;;2.80;2.47;;;5.70;99.90;;;;;;5053206;28;20168;-76
2023/01/27 13:32:05;;;;;;;2.40;2.20;;;5.60;99.90;;;;;;5051856;28;20195;-76
2023/01/27 13:35:05;;;;;;;5.13;2.00;;;5.60;99.90;;;;;;5051728;28;20191;-77
2023/01/27 13:37:35;;;;;;;3.37;2.60;;;5.60;99.90;;;;;;5052918;28;20635;-77
2023/01/27 13:40:18;;;;;;;3.00;2.73;;;5.60;99.90;;;;;;5051649;28;20172;-77
2023/01/27 13:42:54;;;;;;;2.63;2.40;;;5.60;99.90;;;;;;5053017;28;20540;-77